sensor_id;sensor_type;location;lat;lon;timestamp;P1;durP1;ratioP1;P2;durP2;ratioP2
16784;SDS011;8509;52.178;5.404;2023-10-13T00:01:24;7.32;;;4.40;;
16784;SDS011;8509;52.178;5.404;2023-10-13T00:03:50;11.70;;;5.43;;
16784;SDS011;8509;52.178;5.404;2023-10-13T00:06:19;10.00;;;4.43;;
16784;SDS011;8509;52.178;5.404;2023-10-13T00:08:45;7.57;;;4.93;;
16784;SDS011;8509;52.178;5.404;2023-10-13T00:11:14;13.80;;;5.10;;
16784;SDS011;8509;52.178;5.404;2023-10-13T00:13:44;9.40;;;3.75;;
16784;SDS011;8509;52.178;5.404;2023-10-13T00:16:19;11.85;;;5.05;;
16784;SDS011;8509;52.178;5.404;2023-10-13T00:18:53;7.70;;;4.57;;
16784;SDS011;8509;52.178;5.404;2023-10-13T00:21:22;10.82;;;5.95;;
16784;SDS011;8509;52.178;5.404;2023-10-13T00:23:58;11.40;;;4.72;;
16784;SDS011;8509;52.178;5.404;2023-10-13T00:26:31;8.40;;;4.90;;
16784;SDS011;8509;52.178;5.404;2023-10-13T00:29:01;9.27;;;4.38;;
16784;SDS011;8509;52.178;5.404;2023-10-13T00:31:41;10.05;;;5.18;;
16784;SDS011;8509;52.178;5.404;2023-10-13T00:34:13;10.13;;;5.03;;
16784;SDS011;8509;52.178;5.404;2023-10-13T00:36:57;11.02;;;4.07;;
16784;SDS011;8509;52.178;5.404;2023-10-13T00:39:46;10.40;;;5.38;;
16784;SDS011;8509;52.178;5.404;2023-10-13T00:42:15;10.20;;;4.63;;
16784;SDS011;8509;52.178;5.404;2023-10-13T00:44:50;6.43;;;4.18;;
16784;SDS011;8509;52.178;5.404;2023-10-13T00:47:19;9.82;;;4.57;;
16784;SDS011;8509;52.178;5.404;2023-10-13T00:50:04;8.40;;;3.90;;
16784;SDS011;8509;52.178;5.404;2023-10-13T00:52:31;9.88;;;4.22;;
16784;SDS011;8509;52.178;5.404;2023-10-13T00:55:00;8.20;;;5.30;;
16784;SDS011;8509;52.178;5.404;2023-10-13T00:57:27;10.45;;;4.55;;
16784;SDS011;8509;52.178;5.404;2023-10-13T00:59:53;8.55;;;4.75;;
16784;SDS011;8509;52.178;5.404;2023-10-13T01:02:20;12.57;;;4.60;;
16784;SDS011;8509;52.178;5.404;2023-10-13T01:05:06;7.07;;;4.55;;
16784;SDS011;8509;52.178;5.404;2023-10-13T01:07:36;7.75;;;4.65;;
16784;SDS011;8509;52.178;5.404;2023-10-13T01:10:09;10.18;;;5.10;;
16784;SDS011;8509;52.178;5.404;2023-10-13T01:12:40;6.78;;;4.03;;
16784;SDS011;8509;52.178;5.404;2023-10-13T01:15:11;7.95;;;4.15;;
16784;SDS011;8509;52.178;5.404;2023-10-13T01:17:43;7.05;;;3.92;;
16784;SDS011;8509;52.178;5.404;2023-10-13T01:20:12;7.70;;;4.20;;
16784;SDS011;8509;52.178;5.404;2023-10-13T01:22:50;8.50;;;5.50;;
16784;SDS011;8509;52.178;5.404;2023-10-13T01:25:24;8.70;;;4.75;;
16784;SDS011;8509;52.178;5.404;2023-10-13T01:27:53;9.25;;;5.28;;
16784;SDS011;8509;52.178;5.404;2023-10-13T01:30:20;9.57;;;5.53;;
16784;SDS011;8509;52.178;5.404;2023-10-13T01:32:52;7.75;;;4.57;;
16784;SDS011;8509;52.178;5.404;2023-10-13T01:35:19;8.40;;;4.43;;
16784;SDS011;8509;52.178;5.404;2023-10-13T01:37:55;9.52;;;4.53;;
16784;SDS011;8509;52.178;5.404;2023-10-13T01:40:21;11.60;;;5.80;;
16784;SDS011;8509;52.178;5.404;2023-10-13T01:42:53;9.48;;;4.78;;
16784;SDS011;8509;52.178;5.404;2023-10-13T01:45:20;11.15;;;5.68;;
16784;SDS011;8509;52.178;5.404;2023-10-13T01:47:46;8.45;;;5.20;;
16784;SDS011;8509;52.178;5.404;2023-10-13T01:50:15;8.98;;;5.85;;
16784;SDS011;8509;52.178;5.404;2023-10-13T01:52:54;9.30;;;5.00;;
16784;SDS011;8509;52.178;5.404;2023-10-13T01:55:39;8.90;;;5.30;;
16784;SDS011;8509;52.178;5.404;2023-10-13T01:58:14;13.63;;;5.53;;
16784;SDS011;8509;52.178;5.404;2023-10-13T02:00:44;9.27;;;5.38;;
16784;SDS011;8509;52.178;5.404;2023-10-13T02:03:12;9.13;;;5.50;;
16784;SDS011;8509;52.178;5.404;2023-10-13T02:05:46;11.15;;;5.75;;
16784;SDS011;8509;52.178;5.404;2023-10-13T02:08:20;9.13;;;5.68;;
16784;SDS011;8509;52.178;5.404;2023-10-13T02:10:50;9.23;;;5.20;;
16784;SDS011;8509;52.178;5.404;2023-10-13T02:13:17;9.75;;;5.30;;
16784;SDS011;8509;52.178;5.404;2023-10-13T02:15:44;11.32;;;4.85;;
16784;SDS011;8509;52.178;5.404;2023-10-13T02:18:13;11.93;;;5.28;;
16784;SDS011;8509;52.178;5.404;2023-10-13T02:20:45;7.40;;;4.20;;
16784;SDS011;8509;52.178;5.404;2023-10-13T02:23:21;9.73;;;4.85;;
16784;SDS011;8509;52.178;5.404;2023-10-13T02:25:47;8.00;;;4.50;;
16784;SDS011;8509;52.178;5.404;2023-10-13T02:28:17;7.35;;;5.25;;
16784;SDS011;8509;52.178;5.404;2023-10-13T02:30:47;7.30;;;4.38;;
16784;SDS011;8509;52.178;5.404;2023-10-13T02:33:18;12.38;;;5.80;;
16784;SDS011;8509;52.178;5.404;2023-10-13T02:35:47;9.30;;;4.80;;
16784;SDS011;8509;52.178;5.404;2023-10-13T02:38:19;8.73;;;4.25;;
16784;SDS011;8509;52.178;5.404;2023-10-13T02:41:15;9.60;;;4.68;;
16784;SDS011;8509;52.178;5.404;2023-10-13T02:43:53;11.63;;;4.20;;
16784;SDS011;8509;52.178;5.404;2023-10-13T02:46:20;12.23;;;4.45;;
16784;SDS011;8509;52.178;5.404;2023-10-13T02:48:50;11.32;;;4.20;;
16784;SDS011;8509;52.178;5.404;2023-10-13T02:51:21;7.60;;;3.88;;
16784;SDS011;8509;52.178;5.404;2023-10-13T02:54:02;10.27;;;4.85;;
16784;SDS011;8509;52.178;5.404;2023-10-13T02:56:34;7.20;;;3.78;;
16784;SDS011;8509;52.178;5.404;2023-10-13T02:59:00;6.32;;;3.58;;
16784;SDS011;8509;52.178;5.404;2023-10-13T03:01:30;10.95;;;4.68;;
16784;SDS011;8509;52.178;5.404;2023-10-13T03:03:59;6.30;;;3.78;;
16784;SDS011;8509;52.178;5.404;2023-10-13T03:06:26;5.55;;;3.70;;
16784;SDS011;8509;52.178;5.404;2023-10-13T03:09:00;7.95;;;4.25;;
16784;SDS011;8509;52.178;5.404;2023-10-13T03:11:44;5.65;;;3.70;;
16784;SDS011;8509;52.178;5.404;2023-10-13T03:14:17;7.47;;;3.70;;
16784;SDS011;8509;52.178;5.404;2023-10-13T03:16:51;7.63;;;4.65;;
16784;SDS011;8509;52.178;5.404;2023-10-13T03:19:17;7.75;;;4.22;;
16784;SDS011;8509;52.178;5.404;2023-10-13T03:21:46;7.50;;;3.90;;
16784;SDS011;8509;52.178;5.404;2023-10-13T03:24:22;10.18;;;4.40;;
16784;SDS011;8509;52.178;5.404;2023-10-13T03:26:58;8.40;;;3.47;;
16784;SDS011;8509;52.178;5.404;2023-10-13T03:29:33;6.72;;;4.30;;
16784;SDS011;8509;52.178;5.404;2023-10-13T03:32:07;7.70;;;3.25;;
16784;SDS011;8509;52.178;5.404;2023-10-13T03:34:37;6.13;;;3.20;;
16784;SDS011;8509;52.178;5.404;2023-10-13T03:37:11;9.75;;;4.18;;
16784;SDS011;8509;52.178;5.404;2023-10-13T03:39:43;3.55;;;2.42;;
16784;SDS011;8509;52.178;5.404;2023-10-13T03:42:10;7.13;;;3.58;;
16784;SDS011;8509;52.178;5.404;2023-10-13T03:44:44;6.32;;;4.65;;
16784;SDS011;8509;52.178;5.404;2023-10-13T03:47:11;5.18;;;2.92;;
16784;SDS011;8509;52.178;5.404;2023-10-13T03:49:44;6.28;;;3.72;;
16784;SDS011;8509;52.178;5.404;2023-10-13T03:52:10;6.45;;;3.88;;
16784;SDS011;8509;52.178;5.404;2023-10-13T03:54:39;6.97;;;3.58;;
16784;SDS011;8509;52.178;5.404;2023-10-13T03:57:06;6.43;;;2.60;;
16784;SDS011;8509;52.178;5.404;2023-10-13T03:59:36;5.47;;;3.83;;
16784;SDS011;8509;52.178;5.404;2023-10-13T04:02:03;9.75;;;4.28;;
16784;SDS011;8509;52.178;5.404;2023-10-13T04:04:37;5.40;;;3.10;;
16784;SDS011;8509;52.178;5.404;2023-10-13T04:07:19;5.10;;;3.38;;
16784;SDS011;8509;52.178;5.404;2023-10-13T04:09:50;5.00;;;2.70;;
16784;SDS011;8509;52.178;5.404;2023-10-13T04:12:35;6.57;;;3.15;;
16784;SDS011;8509;52.178;5.404;2023-10-13T04:15:19;4.78;;;3.10;;
16784;SDS011;8509;52.178;5.404;2023-10-13T04:17:48;5.53;;;3.28;;
16784;SDS011;8509;52.178;5.404;2023-10-13T04:20:15;5.03;;;3.10;;
16784;SDS011;8509;52.178;5.404;2023-10-13T04:23:01;4.55;;;3.15;;
16784;SDS011;8509;52.178;5.404;2023-10-13T04:25:27;3.85;;;2.80;;
16784;SDS011;8509;52.178;5.404;2023-10-13T04:28:00;7.18;;;3.47;;
16784;SDS011;8509;52.178;5.404;2023-10-13T04:30:42;7.90;;;2.92;;
16784;SDS011;8509;52.178;5.404;2023-10-13T04:33:35;4.68;;;3.58;;
16784;SDS011;8509;52.178;5.404;2023-10-13T04:36:05;6.40;;;3.70;;
16784;SDS011;8509;52.178;5.404;2023-10-13T04:38:51;4.68;;;3.00;;
16784;SDS011;8509;52.178;5.404;2023-10-13T04:41:28;7.70;;;3.15;;
16784;SDS011;8509;52.178;5.404;2023-10-13T04:44:01;8.90;;;3.22;;
16784;SDS011;8509;52.178;5.404;2023-10-13T04:46:48;4.85;;;2.85;;
16784;SDS011;8509;52.178;5.404;2023-10-13T04:49:15;4.13;;;2.58;;
16784;SDS011;8509;52.178;5.404;2023-10-13T04:52:01;6.40;;;3.30;;
16784;SDS011;8509;52.178;5.404;2023-10-13T04:54:34;4.97;;;2.65;;
16784;SDS011;8509;52.178;5.404;2023-10-13T04:57:12;3.92;;;2.55;;
16784;SDS011;8509;52.178;5.404;2023-10-13T04:59:50;4.82;;;2.33;;
16784;SDS011;8509;52.178;5.404;2023-10-13T05:02:31;4.53;;;2.20;;
16784;SDS011;8509;52.178;5.404;2023-10-13T05:05:21;4.93;;;3.03;;
16784;SDS011;8509;52.178;5.404;2023-10-13T05:07:50;1.98;;;1.77;;
16784;SDS011;8509;52.178;5.404;2023-10-13T05:10:35;7.43;;;2.53;;
16784;SDS011;8509;52.178;5.404;2023-10-13T05:13:21;6.45;;;2.58;;
16784;SDS011;8509;52.178;5.404;2023-10-13T05:16:05;1.70;;;1.48;;
16784;SDS011;8509;52.178;5.404;2023-10-13T05:18:49;3.88;;;2.38;;
16784;SDS011;8509;52.178;5.404;2023-10-13T05:21:34;3.22;;;2.03;;
16784;SDS011;8509;52.178;5.404;2023-10-13T05:24:18;3.55;;;2.40;;
16784;SDS011;8509;52.178;5.404;2023-10-13T05:27:02;4.22;;;2.67;;
16784;SDS011;8509;52.178;5.404;2023-10-13T05:29:46;2.97;;;2.05;;
16784;SDS011;8509;52.178;5.404;2023-10-13T05:32:31;4.28;;;2.28;;
16784;SDS011;8509;52.178;5.404;2023-10-13T05:35:19;3.67;;;2.80;;
16784;SDS011;8509;52.178;5.404;2023-10-13T05:38:04;4.32;;;2.58;;
16784;SDS011;8509;52.178;5.404;2023-10-13T05:40:59;3.45;;;2.60;;
16784;SDS011;8509;52.178;5.404;2023-10-13T05:44:04;3.85;;;3.17;;
16784;SDS011;8509;52.178;5.404;2023-10-13T05:46:48;5.65;;;3.03;;
16784;SDS011;8509;52.178;5.404;2023-10-13T05:49:14;4.30;;;2.47;;
16784;SDS011;8509;52.178;5.404;2023-10-13T05:51:40;3.45;;;2.30;;
16784;SDS011;8509;52.178;5.404;2023-10-13T05:54:09;5.43;;;2.63;;
16784;SDS011;8509;52.178;5.404;2023-10-13T05:56:45;13.13;;;3.22;;
16784;SDS011;8509;52.178;5.404;2023-10-13T06:02:17;4.35;;;2.67;;
16784;SDS011;8509;52.178;5.404;2023-10-13T06:05:05;3.40;;;1.88;;
16784;SDS011;8509;52.178;5.404;2023-10-13T06:07:53;5.32;;;2.53;;
16784;SDS011;8509;52.178;5.404;2023-10-13T06:10:38;2.72;;;2.30;;
16784;SDS011;8509;52.178;5.404;2023-10-13T06:13:23;4.07;;;2.33;;
16784;SDS011;8509;52.178;5.404;2023-10-13T06:16:14;5.65;;;2.60;;
16784;SDS011;8509;52.178;5.404;2023-10-13T06:19:00;4.68;;;2.20;;
16784;SDS011;8509;52.178;5.404;2023-10-13T06:21:44;7.60;;;3.05;;
16784;SDS011;8509;52.178;5.404;2023-10-13T06:24:29;5.65;;;3.05;;
16784;SDS011;8509;52.178;5.404;2023-10-13T06:27:14;5.30;;;2.25;;
16784;SDS011;8509;52.178;5.404;2023-10-13T06:29:59;4.85;;;2.83;;
16784;SDS011;8509;52.178;5.404;2023-10-13T06:32:29;2.38;;;1.80;;
16784;SDS011;8509;52.178;5.404;2023-10-13T06:34:56;8.00;;;2.72;;
16784;SDS011;8509;52.178;5.404;2023-10-13T06:37:32;8.57;;;2.83;;
16784;SDS011;8509;52.178;5.404;2023-10-13T06:40:00;4.78;;;2.33;;
16784;SDS011;8509;52.178;5.404;2023-10-13T06:42:47;3.50;;;2.08;;
16784;SDS011;8509;52.178;5.404;2023-10-13T06:45:16;7.50;;;2.20;;
16784;SDS011;8509;52.178;5.404;2023-10-13T06:47:43;5.10;;;2.63;;
16784;SDS011;8509;52.178;5.404;2023-10-13T06:50:09;4.93;;;2.70;;
16784;SDS011;8509;52.178;5.404;2023-10-13T06:52:44;8.48;;;2.47;;
16784;SDS011;8509;52.178;5.404;2023-10-13T06:55:11;2.97;;;2.22;;
16784;SDS011;8509;52.178;5.404;2023-10-13T06:57:42;3.22;;;2.08;;
16784;SDS011;8509;52.178;5.404;2023-10-13T07:00:09;3.10;;;2.30;;
16784;SDS011;8509;52.178;5.404;2023-10-13T07:02:45;4.75;;;2.97;;
16784;SDS011;8509;52.178;5.404;2023-10-13T07:05:12;5.32;;;2.92;;
16784;SDS011;8509;52.178;5.404;2023-10-13T07:07:39;8.45;;;3.88;;
16784;SDS011;8509;52.178;5.404;2023-10-13T07:10:15;6.13;;;3.80;;
16784;SDS011;8509;52.178;5.404;2023-10-13T07:12:41;8.45;;;4.15;;
16784;SDS011;8509;52.178;5.404;2023-10-13T07:15:08;5.78;;;3.33;;
16784;SDS011;8509;52.178;5.404;2023-10-13T07:17:43;5.18;;;3.58;;
16784;SDS011;8509;52.178;5.404;2023-10-13T07:20:09;6.60;;;3.40;;
16784;SDS011;8509;52.178;5.404;2023-10-13T07:22:58;7.40;;;4.22;;
16784;SDS011;8509;52.178;5.404;2023-10-13T07:25:34;6.80;;;4.38;;
16784;SDS011;8509;52.178;5.404;2023-10-13T07:30:29;10.00;;;4.63;;
16784;SDS011;8509;52.178;5.404;2023-10-13T07:33:04;5.32;;;3.85;;
16784;SDS011;8509;52.178;5.404;2023-10-13T07:35:31;5.95;;;3.65;;
16784;SDS011;8509;52.178;5.404;2023-10-13T07:38:00;5.45;;;4.15;;
16784;SDS011;8509;52.178;5.404;2023-10-13T07:40:27;6.00;;;4.15;;
16784;SDS011;8509;52.178;5.404;2023-10-13T07:43:05;7.90;;;4.13;;
16784;SDS011;8509;52.178;5.404;2023-10-13T07:45:35;5.65;;;3.83;;
16784;SDS011;8509;52.178;5.404;2023-10-13T07:48:03;5.97;;;4.05;;
16784;SDS011;8509;52.178;5.404;2023-10-13T07:50:38;5.47;;;3.65;;
16784;SDS011;8509;52.178;5.404;2023-10-13T07:53:04;10.18;;;3.45;;
16784;SDS011;8509;52.178;5.404;2023-10-13T07:55:44;4.50;;;2.65;;
16784;SDS011;8509;52.178;5.404;2023-10-13T07:58:14;5.63;;;2.90;;
16784;SDS011;8509;52.178;5.404;2023-10-13T08:00:39;7.38;;;3.15;;
16784;SDS011;8509;52.178;5.404;2023-10-13T08:03:14;8.68;;;3.22;;
16784;SDS011;8509;52.178;5.404;2023-10-13T08:05:40;10.10;;;3.63;;
16784;SDS011;8509;52.178;5.404;2023-10-13T08:08:28;9.48;;;2.35;;
16784;SDS011;8509;52.178;5.404;2023-10-13T08:11:06;4.10;;;2.47;;
16784;SDS011;8509;52.178;5.404;2023-10-13T08:14:00;4.95;;;3.00;;
16784;SDS011;8509;52.178;5.404;2023-10-13T08:16:55;4.93;;;2.10;;
16784;SDS011;8509;52.178;5.404;2023-10-13T08:19:31;4.10;;;2.13;;
16784;SDS011;8509;52.178;5.404;2023-10-13T08:22:04;7.03;;;2.85;;
16784;SDS011;8509;52.178;5.404;2023-10-13T08:24:46;3.65;;;2.15;;
16784;SDS011;8509;52.178;5.404;2023-10-13T08:27:13;10.70;;;2.05;;
16784;SDS011;8509;52.178;5.404;2023-10-13T08:29:40;3.75;;;2.95;;
16784;SDS011;8509;52.178;5.404;2023-10-13T08:32:19;3.40;;;2.88;;
16784;SDS011;8509;52.178;5.404;2023-10-13T08:34:55;8.40;;;3.00;;
16784;SDS011;8509;52.178;5.404;2023-10-13T08:37:23;3.63;;;1.92;;
16784;SDS011;8509;52.178;5.404;2023-10-13T08:39:51;5.95;;;2.15;;
16784;SDS011;8509;52.178;5.404;2023-10-13T08:42:43;4.05;;;2.78;;
16784;SDS011;8509;52.178;5.404;2023-10-13T08:45:10;4.03;;;1.92;;
16784;SDS011;8509;52.178;5.404;2023-10-13T08:48:06;4.53;;;1.88;;
16784;SDS011;8509;52.178;5.404;2023-10-13T08:53:21;4.25;;;2.75;;
16784;SDS011;8509;52.178;5.404;2023-10-13T08:55:52;1.67;;;1.55;;
16784;SDS011;8509;52.178;5.404;2023-10-13T08:58:27;4.32;;;2.63;;
16784;SDS011;8509;52.178;5.404;2023-10-13T09:01:13;5.32;;;1.95;;
16784;SDS011;8509;52.178;5.404;2023-10-13T09:03:59;2.88;;;2.17;;
16784;SDS011;8509;52.178;5.404;2023-10-13T09:06:47;11.35;;;1.85;;
16784;SDS011;8509;52.178;5.404;2023-10-13T09:09:33;3.13;;;1.70;;
16784;SDS011;8509;52.178;5.404;2023-10-13T09:14:42;1.85;;;1.50;;
16784;SDS011;8509;52.178;5.404;2023-10-13T09:17:10;1.83;;;1.33;;
16784;SDS011;8509;52.178;5.404;2023-10-13T09:19:43;3.35;;;1.73;;
16784;SDS011;8509;52.178;5.404;2023-10-13T09:22:23;5.47;;;1.52;;
16784;SDS011;8509;52.178;5.404;2023-10-13T09:24:53;3.78;;;1.48;;
16784;SDS011;8509;52.178;5.404;2023-10-13T09:27:34;3.65;;;1.85;;
16784;SDS011;8509;52.178;5.404;2023-10-13T09:30:03;5.22;;;2.42;;
16784;SDS011;8509;52.178;5.404;2023-10-13T09:33:02;2.22;;;1.90;;
16784;SDS011;8509;52.178;5.404;2023-10-13T09:35:30;2.90;;;1.65;;
16784;SDS011;8509;52.178;5.404;2023-10-13T09:37:59;7.03;;;1.75;;
16784;SDS011;8509;52.178;5.404;2023-10-13T09:40:29;1.98;;;1.60;;
16784;SDS011;8509;52.178;5.404;2023-10-13T09:42:58;2.53;;;1.50;;
16784;SDS011;8509;52.178;5.404;2023-10-13T09:45:34;1.65;;;1.55;;
16784;SDS011;8509;52.178;5.404;2023-10-13T09:48:09;2.63;;;1.27;;
16784;SDS011;8509;52.178;5.404;2023-10-13T09:50:46;3.80;;;1.60;;
16784;SDS011;8509;52.178;5.404;2023-10-13T09:53:16;16.17;;;2.67;;
16784;SDS011;8509;52.178;5.404;2023-10-13T09:55:47;4.70;;;2.17;;
16784;SDS011;8509;52.178;5.404;2023-10-13T09:59:14;1.85;;;1.50;;
16784;SDS011;8509;52.178;5.404;2023-10-13T10:01:39;3.80;;;2.05;;
16784;SDS011;8509;52.178;5.404;2023-10-13T10:04:15;2.78;;;2.00;;
16784;SDS011;8509;52.178;5.404;2023-10-13T10:09:19;4.13;;;1.83;;
16784;SDS011;8509;52.178;5.404;2023-10-13T10:12:19;6.03;;;1.50;;
16784;SDS011;8509;52.178;5.404;2023-10-13T10:15:12;3.42;;;2.70;;
16784;SDS011;8509;52.178;5.404;2023-10-13T10:17:53;5.75;;;1.95;;
16784;SDS011;8509;52.178;5.404;2023-10-13T10:20:27;1.95;;;1.50;;
16784;SDS011;8509;52.178;5.404;2023-10-13T10:23:10;3.33;;;1.73;;
16784;SDS011;8509;52.178;5.404;2023-10-13T10:25:48;1.52;;;1.17;;
16784;SDS011;8509;52.178;5.404;2023-10-13T10:28:16;5.10;;;1.90;;
16784;SDS011;8509;52.178;5.404;2023-10-13T10:30:44;3.30;;;1.77;;
16784;SDS011;8509;52.178;5.404;2023-10-13T10:33:10;3.85;;;2.03;;
16784;SDS011;8509;52.178;5.404;2023-10-13T10:35:59;3.58;;;1.85;;
16784;SDS011;8509;52.178;5.404;2023-10-13T10:38:26;2.20;;;1.42;;
16784;SDS011;8509;52.178;5.404;2023-10-13T10:41:04;2.58;;;1.75;;
16784;SDS011;8509;52.178;5.404;2023-10-13T10:43:39;2.50;;;1.73;;
16784;SDS011;8509;52.178;5.404;2023-10-13T10:46:18;1.60;;;1.45;;
16784;SDS011;8509;52.178;5.404;2023-10-13T10:48:52;3.42;;;1.70;;
16784;SDS011;8509;52.178;5.404;2023-10-13T10:51:26;10.60;;;2.22;;
16784;SDS011;8509;52.178;5.404;2023-10-13T10:53:59;1.58;;;1.30;;
16784;SDS011;8509;52.178;5.404;2023-10-13T10:56:36;2.38;;;1.40;;
16784;SDS011;8509;52.178;5.404;2023-10-13T10:59:03;2.15;;;1.38;;
16784;SDS011;8509;52.178;5.404;2023-10-13T11:01:32;3.42;;;1.48;;
16784;SDS011;8509;52.178;5.404;2023-10-13T11:04:04;7.40;;;2.03;;
16784;SDS011;8509;52.178;5.404;2023-10-13T11:06:44;3.00;;;1.60;;
16784;SDS011;8509;52.178;5.404;2023-10-13T11:09:11;4.75;;;2.25;;
16784;SDS011;8509;52.178;5.404;2023-10-13T11:11:55;2.00;;;1.50;;
16784;SDS011;8509;52.178;5.404;2023-10-13T11:14:28;4.90;;;2.92;;
16784;SDS011;8509;52.178;5.404;2023-10-13T11:16:55;3.72;;;2.05;;
16784;SDS011;8509;52.178;5.404;2023-10-13T11:19:41;1.35;;;1.23;;
16784;SDS011;8509;52.178;5.404;2023-10-13T11:25:06;2.85;;;2.20;;
16784;SDS011;8509;52.178;5.404;2023-10-13T11:27:40;1.92;;;1.25;;
16784;SDS011;8509;52.178;5.404;2023-10-13T11:30:20;2.10;;;1.57;;
16784;SDS011;8509;52.178;5.404;2023-10-13T11:33:17;1.27;;;1.13;;
16784;SDS011;8509;52.178;5.404;2023-10-13T11:35:44;2.65;;;1.42;;
16784;SDS011;8509;52.178;5.404;2023-10-13T11:38:19;1.80;;;1.58;;
16784;SDS011;8509;52.178;5.404;2023-10-13T11:43:37;2.00;;;1.00;;
16784;SDS011;8509;52.178;5.404;2023-10-13T11:46:07;1.73;;;1.58;;
16784;SDS011;8509;52.178;5.404;2023-10-13T11:48:44;3.28;;;2.05;;
16784;SDS011;8509;52.178;5.404;2023-10-13T11:51:12;2.10;;;1.98;;
16784;SDS011;8509;52.178;5.404;2023-10-13T11:53:56;1.33;;;1.23;;
16784;SDS011;8509;52.178;5.404;2023-10-13T11:56:23;3.95;;;2.03;;
16784;SDS011;8509;52.178;5.404;2023-10-13T11:58:49;2.25;;;1.65;;
16784;SDS011;8509;52.178;5.404;2023-10-13T12:01:17;1.75;;;1.42;;
16784;SDS011;8509;52.178;5.404;2023-10-13T12:03:44;2.25;;;1.63;;
16784;SDS011;8509;52.178;5.404;2023-10-13T12:06:30;3.70;;;2.03;;
16784;SDS011;8509;52.178;5.404;2023-10-13T12:09:00;1.80;;;1.50;;
16784;SDS011;8509;52.178;5.404;2023-10-13T12:11:41;3.27;;;1.50;;
16784;SDS011;8509;52.178;5.404;2023-10-13T12:14:08;3.63;;;1.52;;
16784;SDS011;8509;52.178;5.404;2023-10-13T12:16:46;1.90;;;1.30;;
16784;SDS011;8509;52.178;5.404;2023-10-13T12:21:53;1.40;;;1.25;;
16784;SDS011;8509;52.178;5.404;2023-10-13T12:24:27;1.63;;;1.40;;
16784;SDS011;8509;52.178;5.404;2023-10-13T12:27:08;4.38;;;2.05;;
16784;SDS011;8509;52.178;5.404;2023-10-13T12:29:49;4.97;;;1.88;;
16784;SDS011;8509;52.178;5.404;2023-10-13T12:32:19;3.28;;;1.48;;
16784;SDS011;8509;52.178;5.404;2023-10-13T12:34:50;1.52;;;1.25;;
16784;SDS011;8509;52.178;5.404;2023-10-13T12:37:25;1.42;;;1.33;;
16784;SDS011;8509;52.178;5.404;2023-10-13T12:40:04;4.40;;;2.53;;
16784;SDS011;8509;52.178;5.404;2023-10-13T12:43:05;2.53;;;1.05;;
16784;SDS011;8509;52.178;5.404;2023-10-13T12:45:50;2.58;;;2.05;;
16784;SDS011;8509;52.178;5.404;2023-10-13T12:48:35;6.88;;;1.85;;
16784;SDS011;8509;52.178;5.404;2023-10-13T12:51:21;1.48;;;1.38;;
16784;SDS011;8509;52.178;5.404;2023-10-13T12:54:00;3.83;;;2.28;;
16784;SDS011;8509;52.178;5.404;2023-10-13T12:56:49;1.45;;;1.10;;
16784;SDS011;8509;52.178;5.404;2023-10-13T13:01:51;1.52;;;1.35;;
16784;SDS011;8509;52.178;5.404;2023-10-13T13:04:18;2.30;;;1.55;;
16784;SDS011;8509;52.178;5.404;2023-10-13T13:06:45;2.17;;;1.27;;
16784;SDS011;8509;52.178;5.404;2023-10-13T13:09:11;1.52;;;1.42;;
16784;SDS011;8509;52.178;5.404;2023-10-13T13:11:37;1.77;;;1.23;;
16784;SDS011;8509;52.178;5.404;2023-10-13T13:14:08;3.40;;;1.77;;
16784;SDS011;8509;52.178;5.404;2023-10-13T13:16:34;5.32;;;2.05;;
16784;SDS011;8509;52.178;5.404;2023-10-13T13:19:00;4.35;;;2.03;;
16784;SDS011;8509;52.178;5.404;2023-10-13T13:21:35;2.28;;;1.65;;
16784;SDS011;8509;52.178;5.404;2023-10-13T13:24:02;2.15;;;1.63;;
16784;SDS011;8509;52.178;5.404;2023-10-13T13:26:29;3.30;;;1.98;;
16784;SDS011;8509;52.178;5.404;2023-10-13T13:28:56;1.52;;;1.42;;
16784;SDS011;8509;52.178;5.404;2023-10-13T13:31:22;2.20;;;1.88;;
16784;SDS011;8509;52.178;5.404;2023-10-13T13:33:54;3.05;;;1.73;;
16784;SDS011;8509;52.178;5.404;2023-10-13T13:36:20;2.40;;;1.70;;
16784;SDS011;8509;52.178;5.404;2023-10-13T13:38:47;2.35;;;1.88;;
16784;SDS011;8509;52.178;5.404;2023-10-13T13:41:17;2.78;;;2.05;;
16784;SDS011;8509;52.178;5.404;2023-10-13T13:43:43;2.08;;;1.48;;
16784;SDS011;8509;52.178;5.404;2023-10-13T13:48:44;5.68;;;2.00;;
16784;SDS011;8509;52.178;5.404;2023-10-13T13:51:22;6.10;;;2.42;;
16784;SDS011;8509;52.178;5.404;2023-10-13T13:53:55;2.58;;;1.40;;
16784;SDS011;8509;52.178;5.404;2023-10-13T13:58:53;4.25;;;2.35;;
16784;SDS011;8509;52.178;5.404;2023-10-13T14:01:21;2.67;;;1.98;;
16784;SDS011;8509;52.178;5.404;2023-10-13T14:03:53;4.10;;;2.13;;
16784;SDS011;8509;52.178;5.404;2023-10-13T14:06:24;4.43;;;2.20;;
16784;SDS011;8509;52.178;5.404;2023-10-13T14:08:58;2.13;;;1.92;;
16784;SDS011;8509;52.178;5.404;2023-10-13T14:11:31;2.47;;;2.10;;
16784;SDS011;8509;52.178;5.404;2023-10-13T14:14:03;4.07;;;2.33;;
16784;SDS011;8509;52.178;5.404;2023-10-13T14:16:50;3.13;;;1.58;;
16784;SDS011;8509;52.178;5.404;2023-10-13T14:19:27;3.60;;;2.25;;
16784;SDS011;8509;52.178;5.404;2023-10-13T14:21:56;4.30;;;2.47;;
16784;SDS011;8509;52.178;5.404;2023-10-13T14:24:23;3.80;;;1.90;;
16784;SDS011;8509;52.178;5.404;2023-10-13T14:26:56;5.63;;;2.33;;
16784;SDS011;8509;52.178;5.404;2023-10-13T14:29:27;3.63;;;2.22;;
16784;SDS011;8509;52.178;5.404;2023-10-13T14:31:53;6.18;;;2.42;;
16784;SDS011;8509;52.178;5.404;2023-10-13T14:34:19;2.33;;;1.88;;
16784;SDS011;8509;52.178;5.404;2023-10-13T14:36:47;4.85;;;3.47;;
16784;SDS011;8509;52.178;5.404;2023-10-13T14:39:13;2.33;;;1.83;;
16784;SDS011;8509;52.178;5.404;2023-10-13T14:41:39;5.68;;;2.08;;
16784;SDS011;8509;52.178;5.404;2023-10-13T14:44:05;7.90;;;2.92;;
16784;SDS011;8509;52.178;5.404;2023-10-13T14:46:31;2.55;;;2.00;;
16784;SDS011;8509;52.178;5.404;2023-10-13T14:49:01;4.50;;;2.60;;
16784;SDS011;8509;52.178;5.404;2023-10-13T14:51:27;7.57;;;2.85;;
16784;SDS011;8509;52.178;5.404;2023-10-13T14:53:56;4.03;;;2.45;;
16784;SDS011;8509;52.178;5.404;2023-10-13T14:56:24;6.70;;;3.35;;
16784;SDS011;8509;52.178;5.404;2023-10-13T14:58:52;7.95;;;3.15;;
16784;SDS011;8509;52.178;5.404;2023-10-13T15:01:19;7.40;;;3.03;;
16784;SDS011;8509;52.178;5.404;2023-10-13T15:03:50;8.52;;;2.88;;
16784;SDS011;8509;52.178;5.404;2023-10-13T15:06:23;10.88;;;2.65;;
16784;SDS011;8509;52.178;5.404;2023-10-13T15:08:52;4.72;;;2.70;;
16784;SDS011;8509;52.178;5.404;2023-10-13T15:11:21;4.05;;;2.20;;
16784;SDS011;8509;52.178;5.404;2023-10-13T15:13:51;5.50;;;2.65;;
16784;SDS011;8509;52.178;5.404;2023-10-13T15:16:18;7.07;;;2.97;;
16784;SDS011;8509;52.178;5.404;2023-10-13T15:18:46;6.15;;;2.80;;
16784;SDS011;8509;52.178;5.404;2023-10-13T15:21:20;8.57;;;2.88;;
16784;SDS011;8509;52.178;5.404;2023-10-13T15:24:00;7.70;;;3.42;;
16784;SDS011;8509;52.178;5.404;2023-10-13T15:26:38;6.53;;;2.92;;
16784;SDS011;8509;52.178;5.404;2023-10-13T15:29:06;5.45;;;2.67;;
16784;SDS011;8509;52.178;5.404;2023-10-13T15:31:37;5.93;;;2.55;;
16784;SDS011;8509;52.178;5.404;2023-10-13T15:34:08;4.63;;;2.67;;
16784;SDS011;8509;52.178;5.404;2023-10-13T15:36:40;3.38;;;2.22;;
16784;SDS011;8509;52.178;5.404;2023-10-13T15:39:10;2.70;;;1.73;;
16784;SDS011;8509;52.178;5.404;2023-10-13T15:41:40;6.38;;;2.72;;
16784;SDS011;8509;52.178;5.404;2023-10-13T15:44:11;8.52;;;2.33;;
16784;SDS011;8509;52.178;5.404;2023-10-13T15:46:39;3.72;;;3.00;;
16784;SDS011;8509;52.178;5.404;2023-10-13T15:49:05;6.22;;;3.20;;
16784;SDS011;8509;52.178;5.404;2023-10-13T15:51:32;3.05;;;2.22;;
16784;SDS011;8509;52.178;5.404;2023-10-13T15:54:04;5.90;;;2.72;;
16784;SDS011;8509;52.178;5.404;2023-10-13T15:56:32;8.25;;;2.35;;
16784;SDS011;8509;52.178;5.404;2023-10-13T15:59:01;2.85;;;1.83;;
16784;SDS011;8509;52.178;5.404;2023-10-13T16:01:27;5.07;;;2.40;;
16784;SDS011;8509;52.178;5.404;2023-10-13T16:03:53;3.88;;;2.88;;
16784;SDS011;8509;52.178;5.404;2023-10-13T16:06:19;4.85;;;3.15;;
16784;SDS011;8509;52.178;5.404;2023-10-13T16:08:50;6.35;;;3.78;;
16784;SDS011;8509;52.178;5.404;2023-10-13T16:11:17;2.97;;;2.20;;